Terminal Aerodrome Forecast
Issued by NWS Paducah, KY

Home | Current Version | Previous Version | Text Only | Print | Product List | Glossary On
Versions: 1 2 3 4 5 6 7 8 9 10 11 12 13 14
407
FTUS43 KPAH 311732
TAFEVV
TAF
KEVV 311732Z 3118/0118 15005KT P6SM SCT060 BKN150
     FM010000 00000KT P6SM SCT080 BKN250
     FM010900 00000KT 5SM BR FEW090 BKN250
     FM011400 22005KT P6SM SCT040 BKN200=

USA.gov is the U.S. government's official web portal to all federal, state and local government web resources and services.